createdAt,value
2023-12-20T00:02:35.205Z,0.79
2023-12-20T00:07:38.487Z,0.79
2023-12-20T00:12:42.477Z,0.80
2023-12-20T00:17:45.737Z,0.78
2023-12-20T00:22:48.801Z,0.81
2023-12-20T00:27:51.975Z,0.84
2023-12-20T00:32:55.416Z,0.86
2023-12-20T00:38:00.069Z,0.80
2023-12-20T00:43:03.120Z,0.82
2023-12-20T00:48:06.641Z,0.89
2023-12-20T00:53:10.089Z,0.83
2023-12-20T00:58:13.455Z,0.83
2023-12-20T01:03:16.837Z,0.88
2023-12-20T01:08:20.105Z,0.87
2023-12-20T01:13:23.306Z,0.90
2023-12-20T01:18:26.487Z,0.90
2023-12-20T01:23:29.531Z,0.93
2023-12-20T01:28:32.776Z,0.96
2023-12-20T01:33:35.810Z,0.92
2023-12-20T01:38:39.428Z,0.96
2023-12-20T01:43:50.592Z,0.95
2023-12-20T01:48:55.019Z,1.02
2023-12-20T01:54:17.897Z,0.94
2023-12-20T01:59:22.855Z,0.94
2023-12-20T02:04:28.421Z,0.91
2023-12-20T02:09:31.918Z,0.90
2023-12-20T02:14:35.117Z,0.86
2023-12-20T02:19:38.303Z,0.88
2023-12-20T02:24:41.390Z,0.86
2023-12-20T02:29:44.411Z,0.89
2023-12-20T02:34:49.826Z,0.89
2023-12-20T02:39:53.189Z,0.87
2023-12-20T02:44:56.210Z,0.87
2023-12-20T02:49:59.488Z,0.83
2023-12-20T02:55:03.028Z,0.85
2023-12-20T03:00:07.486Z,0.82
2023-12-20T03:05:10.524Z,0.81
2023-12-20T03:10:19.977Z,0.83
2023-12-20T03:15:27.096Z,0.84
2023-12-20T03:20:30.261Z,0.81
2023-12-20T03:25:33.804Z,0.83
2023-12-20T03:30:36.828Z,0.84
2023-12-20T03:35:40.008Z,0.86
2023-12-20T03:40:43.235Z,0.86
2023-12-20T03:45:46.498Z,0.87
2023-12-20T03:50:49.560Z,0.91
2023-12-20T03:55:53.086Z,0.92
2023-12-20T04:00:56.492Z,0.92
2023-12-20T04:05:59.697Z,0.91
2023-12-20T04:11:02.926Z,0.93
2023-12-20T04:16:06.181Z,0.96
2023-12-20T04:21:09.200Z,0.98
2023-12-20T04:26:12.330Z,0.97
2023-12-20T04:31:15.488Z,0.94
2023-12-20T04:36:18.870Z,1.01
2023-12-20T04:41:21.917Z,1.01
2023-12-20T04:46:25.111Z,1.01
2023-12-20T04:51:28.975Z,1.01
2023-12-20T04:56:32.319Z,1.01
2023-12-20T05:01:35.541Z,1.08
2023-12-20T05:06:39.030Z,1.06
2023-12-20T05:11:42.128Z,1.08
2023-12-20T05:16:45.244Z,1.07
2023-12-20T05:21:48.210Z,1.11
2023-12-20T05:26:53.762Z,1.08
2023-12-20T05:31:57.242Z,1.12
2023-12-20T05:37:00.477Z,1.19
2023-12-20T05:42:03.718Z,1.15
2023-12-20T05:47:07.009Z,1.19
2023-12-20T05:52:10.246Z,1.18
2023-12-20T05:57:13.968Z,1.17
2023-12-20T06:02:17.119Z,1.18
2023-12-20T06:07:21.080Z,1.16
2023-12-20T06:12:24.295Z,1.19
2023-12-20T06:17:27.460Z,1.17
2023-12-20T06:22:31.016Z,1.20
2023-12-20T06:27:34.286Z,1.19
2023-12-20T06:32:37.460Z,1.22
2023-12-20T06:37:44.116Z,1.29
2023-12-20T06:42:58.943Z,1.32
2023-12-20T06:48:08.730Z,1.27
2023-12-20T06:53:11.786Z,1.29
2023-12-20T06:58:15.254Z,1.27
2023-12-20T07:03:36.993Z,1.27
2023-12-20T07:08:41.656Z,1.34
2023-12-20T07:13:44.903Z,1.34
2023-12-20T07:18:48.596Z,1.36
2023-12-20T07:23:51.693Z,1.38
2023-12-20T07:28:54.821Z,1.43
2023-12-20T07:34:16.919Z,1.45
2023-12-20T07:39:20.819Z,1.52
2023-12-20T07:44:23.926Z,1.59
2023-12-20T07:49:27.472Z,1.52
2023-12-20T07:54:30.866Z,1.49
2023-12-20T07:59:34.392Z,1.50
2023-12-20T08:04:37.638Z,1.54
2023-12-20T08:09:40.630Z,1.64
2023-12-20T08:14:43.855Z,1.72
2023-12-20T08:19:47.000Z,1.66
2023-12-20T08:24:50.184Z,1.79
2023-12-20T08:29:53.387Z,1.82
2023-12-20T08:34:56.577Z,1.79
2023-12-20T08:39:59.774Z,1.85
2023-12-20T08:45:02.864Z,1.95
2023-12-20T08:50:07.458Z,1.88
2023-12-20T08:55:12.077Z,2.01
2023-12-20T09:00:15.365Z,2.10
2023-12-20T09:05:18.614Z,1.92
2023-12-20T09:10:23.783Z,1.88
2023-12-20T09:15:27.969Z,1.85
2023-12-20T09:20:31.631Z,1.88
2023-12-20T09:25:35.056Z,1.99
2023-12-20T09:30:41.735Z,2.00
2023-12-20T09:35:45.826Z,1.88
2023-12-20T09:40:49.461Z,1.85
2023-12-20T09:45:55.224Z,1.90
2023-12-20T09:50:58.662Z,1.86
2023-12-20T09:56:02.036Z,1.87
2023-12-20T10:01:05.836Z,1.75
2023-12-20T10:06:09.384Z,1.74
2023-12-20T10:11:31.371Z,1.72
2023-12-20T10:16:35.437Z,1.74
2023-12-20T10:21:38.701Z,1.72
2023-12-20T10:26:41.772Z,1.76
2023-12-20T10:31:46.454Z,1.72
2023-12-20T10:36:49.924Z,1.68
2023-12-20T10:41:53.335Z,1.66
2023-12-20T10:47:00.033Z,1.71
2023-12-20T10:52:05.588Z,1.71
2023-12-20T10:57:09.438Z,1.66
2023-12-20T11:02:13.126Z,1.66
2023-12-20T11:07:27.330Z,1.63
2023-12-20T11:12:55.585Z,1.54
2023-12-20T11:18:00.460Z,1.55
2023-12-20T11:23:04.281Z,1.51
2023-12-20T11:28:12.168Z,1.54
2023-12-20T11:33:17.058Z,1.52
2023-12-20T11:38:22.370Z,1.52
2023-12-20T11:43:37.848Z,1.53
2023-12-20T11:48:45.727Z,1.49
2023-12-20T11:53:54.789Z,1.50
2023-12-20T11:59:06.359Z,1.52
2023-12-20T12:04:17.097Z,1.46
2023-12-20T12:09:20.715Z,1.42
2023-12-20T12:14:23.874Z,1.46
2023-12-20T12:19:28.340Z,1.39
2023-12-20T12:24:31.469Z,1.36
2023-12-20T12:29:35.017Z,1.30
2023-12-20T12:34:38.294Z,1.31
2023-12-20T12:39:41.987Z,1.24
2023-12-20T12:44:45.100Z,1.24
2023-12-20T12:49:48.424Z,1.22
2023-12-20T12:54:51.756Z,1.24
2023-12-20T12:59:55.109Z,1.21
2023-12-20T13:04:58.656Z,1.22
2023-12-20T13:10:01.955Z,1.18
2023-12-20T13:15:07.497Z,1.17
2023-12-20T13:20:10.754Z,1.13
2023-12-20T13:25:13.889Z,1.14
2023-12-20T13:30:20.164Z,1.15
2023-12-20T13:35:23.548Z,1.17
2023-12-20T13:40:26.884Z,1.14
2023-12-20T13:45:30.029Z,1.19
2023-12-20T13:50:33.208Z,1.25
2023-12-20T13:55:36.557Z,1.28
2023-12-20T14:00:39.692Z,1.30
2023-12-20T14:05:43.317Z,1.29
2023-12-20T14:10:46.578Z,1.40
2023-12-20T14:15:50.777Z,1.38
2023-12-20T14:20:55.375Z,1.44
2023-12-20T14:26:00.244Z,1.45
2023-12-20T14:31:03.601Z,1.41
2023-12-20T14:36:07.517Z,1.45
2023-12-20T14:41:10.724Z,1.43
2023-12-20T14:46:13.996Z,1.41
2023-12-20T14:51:17.296Z,1.34
2023-12-20T14:56:21.837Z,1.37
2023-12-20T15:01:25.310Z,1.34
2023-12-20T15:06:28.954Z,1.38
2023-12-20T15:11:36.967Z,1.39
2023-12-20T15:16:40.071Z,1.39
2023-12-20T15:21:47.054Z,1.34
2023-12-20T15:26:51.422Z,1.37
2023-12-20T15:32:13.182Z,1.40
2023-12-20T15:37:16.692Z,1.43
2023-12-20T15:42:20.865Z,1.41
2023-12-20T15:47:24.929Z,1.38
2023-12-20T15:52:32.599Z,1.37
2023-12-20T15:57:45.298Z,1.34
2023-12-20T16:02:55.465Z,1.35
2023-12-20T16:07:59.231Z,1.36
2023-12-20T16:13:02.981Z,1.42
2023-12-20T16:18:12.437Z,1.34
2023-12-20T16:23:15.690Z,1.40
2023-12-20T16:28:18.991Z,1.46
2023-12-20T16:33:22.188Z,1.48
2023-12-20T16:38:25.439Z,1.43
2023-12-20T16:43:28.582Z,1.47
2023-12-20T16:48:32.036Z,1.48
2023-12-20T16:53:35.124Z,1.43
2023-12-20T16:58:38.435Z,1.48
2023-12-20T17:03:41.488Z,1.51
2023-12-20T17:08:45.224Z,1.52
2023-12-20T17:13:48.640Z,1.56
2023-12-20T17:18:51.829Z,1.58
2023-12-20T17:23:55.090Z,1.62
2023-12-20T17:28:58.349Z,1.64
2023-12-20T17:34:01.587Z,1.67
2023-12-20T17:39:06.065Z,1.67
2023-12-20T17:44:09.267Z,1.65
2023-12-20T17:49:12.353Z,1.66
2023-12-20T17:54:15.716Z,1.63
2023-12-20T17:59:18.872Z,1.65
2023-12-20T18:04:22.184Z,1.66
2023-12-20T18:09:25.424Z,1.70
2023-12-20T18:14:29.016Z,1.71
2023-12-20T18:19:32.434Z,1.72
2023-12-20T18:24:35.722Z,1.71
2023-12-20T18:29:38.818Z,1.69
2023-12-20T18:34:42.152Z,1.75
2023-12-20T18:39:45.343Z,1.72
2023-12-20T18:44:48.627Z,1.74
2023-12-20T18:49:51.787Z,1.70
2023-12-20T18:54:55.112Z,1.73
2023-12-20T19:00:01.193Z,1.73
2023-12-20T19:05:08.409Z,1.71
2023-12-20T19:10:12.850Z,1.66
2023-12-20T19:15:17.097Z,1.70
2023-12-20T19:20:22.269Z,1.73
2023-12-20T19:25:25.439Z,1.72
2023-12-20T19:30:29.086Z,1.71
2023-12-20T19:35:32.495Z,1.69
2023-12-20T19:40:35.656Z,1.69
2023-12-20T19:45:38.824Z,1.70
2023-12-20T19:50:42.056Z,1.75
2023-12-20T19:55:46.460Z,1.73
2023-12-20T20:00:55.253Z,1.75
2023-12-20T20:05:59.731Z,1.71
2023-12-20T20:11:03.185Z,1.70
2023-12-20T20:16:06.765Z,1.72
2023-12-20T20:21:09.859Z,1.72
2023-12-20T20:26:15.500Z,1.73
2023-12-20T20:31:18.709Z,1.78
2023-12-20T20:36:21.830Z,1.81
2023-12-20T20:41:24.921Z,1.84
2023-12-20T20:46:30.045Z,1.83
2023-12-20T20:51:33.423Z,1.87
2023-12-20T20:56:36.988Z,1.87
2023-12-20T21:01:40.408Z,1.87
2023-12-20T21:06:43.658Z,1.89
2023-12-20T21:11:47.027Z,1.89
2023-12-20T21:16:50.221Z,1.73
2023-12-20T21:21:53.556Z,1.70
2023-12-20T21:26:56.789Z,1.65
2023-12-20T21:32:00.159Z,1.65
2023-12-20T21:37:03.574Z,1.70
2023-12-20T21:42:06.899Z,1.75
2023-12-20T21:47:28.538Z,1.75
2023-12-20T21:52:31.830Z,1.76
2023-12-20T21:57:34.952Z,1.71
2023-12-20T22:02:38.264Z,1.79
2023-12-20T22:07:41.942Z,1.79
2023-12-20T22:12:45.689Z,1.77
2023-12-20T22:17:52.149Z,1.81
2023-12-20T22:22:55.280Z,1.81
2023-12-20T22:27:58.497Z,1.85
2023-12-20T22:33:01.812Z,1.80
2023-12-20T22:38:05.201Z,1.81
2023-12-20T22:43:08.551Z,1.73
2023-12-20T22:48:11.927Z,1.70
2023-12-20T22:53:15.131Z,1.73
2023-12-20T22:58:18.905Z,1.76
2023-12-20T23:03:26.569Z,1.79
2023-12-20T23:08:30.571Z,1.82
2023-12-20T23:13:34.057Z,1.73
2023-12-20T23:18:37.300Z,1.69
2023-12-20T23:23:40.487Z,1.70
2023-12-20T23:28:43.737Z,1.69
2023-12-20T23:33:47.279Z,1.69
2023-12-20T23:38:50.467Z,1.69
2023-12-20T23:43:53.543Z,1.62
2023-12-20T23:48:56.885Z,1.64
2023-12-20T23:53:59.976Z,1.60
2023-12-20T23:59:03.198Z,1.62
